Time;durP1;ratioP1;P1;durP2;ratioP2;P2;SDS_P1;SDS_P2;PMS_P1;PMS_P2;Temp;Humidity;BMP_temperature;BMP_pressure;BME280_temperature;BME280_humidity;BME280_pressure;Samples;Min_cycle;Max_cycle;Signal;HPM_P1;HPM_P2
2023/03/20 00:01:08;;;;;;;51.03;18.30;;;;;;;;;;12819847;19;20433;-70
2023/03/20 00:05:58;;;;;;;38.70;18.75;;;;;;;;;;12820242;19;20309;-69
2023/03/20 00:16:59;;;;;;;35.25;18.50;;;;;;;;;;12816981;19;20387;-70
2023/03/20 00:21:31;;;;;;;46.55;18.95;;;;;;;;;;12819343;19;20429;-70
2023/03/20 00:32:08;;;;;;;37.63;18.10;;;;;;;;;;12720242;19;2004919;-68
2023/03/20 00:37:04;;;;;;;39.53;17.20;;;;;;;;;;12817990;19;20392;-69
2023/03/20 00:47:36;;;;;;;42.47;18.45;;;;;;;;;;12822668;19;20365;-69
2023/03/20 00:52:21;;;;;;;35.65;16.90;;;;;;;;;;12824569;19;20303;-69
2023/03/20 01:04:08;;;;;;;32.72;15.38;;;;;;;;;;12827421;19;20019;-70
2023/03/20 01:09:04;;;;;;;39.15;16.65;;;;;;;;;;12816062;19;20434;-68
2023/03/20 01:19:58;;;;;;;37.28;14.45;;;;;;;;;;12815034;19;20034;-68
2023/03/20 01:24:41;;;;;;;35.40;15.48;;;;;;;;;;12815386;19;20327;-67
2023/03/20 01:29:29;;;;;;;39.92;16.67;;;;;;;;;;12816222;19;20930;-67
2023/03/20 01:34:12;;;;;;;30.05;14.77;;;;;;;;;;12817025;19;20518;-67
2023/03/20 01:44:36;;;;;;;31.27;14.05;;;;;;;;;;12814680;19;20026;-68
2023/03/20 01:55:34;;;;;;;25.77;12.20;;;;;;;;;;12811262;19;20453;-69
2023/03/20 02:00:25;;;;;;;25.52;12.50;;;;;;;;;;12813661;19;20457;-68
2023/03/20 02:11:25;;;;;;;27.50;12.98;;;;;;;;;;12712818;19;2005111;-68
2023/03/20 02:16:32;;;;;;;21.67;11.48;;;;;;;;;;12810703;19;20422;-68
2023/03/20 02:34:08;;;;;;;26.47;12.17;;;;;;;;;;12814873;19;20010;-68
2023/03/20 02:39:06;;;;;;;27.60;12.00;;;;;;;;;;12821044;19;20052;-69
2023/03/20 02:44:48;;;;;;;25.60;11.75;;;;;;;;;;12810483;19;20443;-67
2023/03/20 02:50:00;;;;;;;26.30;12.20;;;;;;;;;;12815722;19;20318;-68
2023/03/20 03:02:02;;;;;;;26.48;12.70;;;;;;;;;;12817341;19;20375;-67
2023/03/20 03:06:31;;;;;;;23.63;12.43;;;;;;;;;;12816599;19;20389;-68
2023/03/20 03:17:34;;;;;;;25.08;11.63;;;;;;;;;;12728071;19;2005210;-68
2023/03/20 03:22:11;;;;;;;28.85;12.27;;;;;;;;;;12829270;19;20295;-68
2023/03/20 03:26:48;;;;;;;26.85;11.30;;;;;;;;;;12829431;19;20404;-67
2023/03/20 03:32:09;;;;;;;22.00;10.48;;;;;;;;;;12828653;19;20010;-68
2023/03/20 03:37:38;;;;;;;25.15;11.63;;;;;;;;;;12829030;19;20150;-68
2023/03/20 03:42:37;;;;;;;27.35;11.30;;;;;;;;;;12828497;19;20365;-68
2023/03/20 03:48:28;;;;;;;24.85;10.90;;;;;;;;;;12829948;19;20809;-67
2023/03/20 03:53:58;;;;;;;24.10;10.70;;;;;;;;;;12827740;19;20091;-67
2023/03/20 03:59:10;;;;;;;31.63;12.80;;;;;;;;;;12827893;19;20461;-68
2023/03/20 04:10:48;;;;;;;25.33;12.20;;;;;;;;;;12720077;19;2005207;-68
2023/03/20 04:15:26;;;;;;;20.48;10.40;;;;;;;;;;12826315;19;20430;-67
2023/03/20 04:26:06;;;;;;;;;;;;;;;;;;12725379;19;2004930;-68
2023/03/20 04:30:43;;;;;;;23.10;11.52;;;;;;;;;;12823671;19;20528;-69
2023/03/20 04:42:07;;;;;;;22.63;10.18;;;;;;;;;;12825304;19;20441;-68
2023/03/20 04:47:08;;;;;;;22.45;11.02;;;;;;;;;;12824344;19;20336;-67
2023/03/20 04:51:31;;;;;;;23.20;10.68;;;;;;;;;;12826671;19;20421;-67
2023/03/20 04:56:00;;;;;;;22.27;11.53;;;;;;;;;;12826762;19;20429;-68
2023/03/20 05:01:01;;;;;;;22.73;9.68;;;;;;;;;;12816134;19;20429;-68
2023/03/20 05:05:58;;;;;;;17.30;9.50;;;;;;;;;;12822967;19;20167;-68
2023/03/20 05:11:07;;;;;;;19.80;10.07;;;;;;;;;;12824992;19;20046;-71
2023/03/20 05:16:33;;;;;;;21.95;10.38;;;;;;;;;;12818384;19;20498;-68
2023/03/20 05:21:31;;;;;;;21.00;10.63;;;;;;;;;;12815185;19;20669;-68
2023/03/20 05:26:48;;;;;;;19.45;9.82;;;;;;;;;;12817150;19;20018;-68
2023/03/20 05:31:35;;;;;;;21.42;9.65;;;;;;;;;;12814387;19;20302;-69
2023/03/20 05:36:37;;;;;;;23.67;10.43;;;;;;;;;;12814471;19;20441;-68
2023/03/20 05:42:46;;;;;;;22.60;11.27;;;;;;;;;;12822863;19;20099;-68
2023/03/20 05:48:14;;;;;;;26.77;11.68;;;;;;;;;;12816670;19;20294;-68
2023/03/20 05:53:25;;;;;;;37.25;14.68;;;;;;;;;;12810881;19;20375;-69
2023/03/20 05:58:30;;;;;;;56.60;21.17;;;;;;;;;;12813284;19;20518;-68
2023/03/20 06:08:49;;;;;;;49.10;19.85;;;;;;;;;;12811914;19;20367;-69
2023/03/20 06:25:04;;;;;;;36.55;16.92;;;;;;;;;;12820265;19;20372;-68
2023/03/20 06:30:00;;;;;;;28.15;13.23;;;;;;;;;;12817647;19;20441;-69
2023/03/20 06:34:30;;;;;;;31.42;14.80;;;;;;;;;;12818609;19;20565;-69
2023/03/20 06:39:19;;;;;;;32.43;15.60;;;;;;;;;;12820756;19;20462;-68
2023/03/20 06:44:02;;;;;;;27.75;12.90;;;;;;;;;;12813910;19;20365;-68
2023/03/20 06:48:37;;;;;;;26.25;11.68;;;;;;;;;;12817422;19;20404;-69
2023/03/20 06:59:24;;;;;;;23.92;12.50;;;;;;;;;;12816009;19;20878;-68
2023/03/20 07:04:08;;;;;;;23.13;11.48;;;;;;;;;;12815454;19;20041;-69
2023/03/20 07:08:38;;;;;;;21.27;11.85;;;;;;;;;;12816373;19;20340;-68
2023/03/20 07:19:06;;;;;;;25.25;11.88;;;;;;;;;;12811877;19;20336;-69
2023/03/20 07:24:02;;;;;;;24.65;12.98;;;;;;;;;;12808710;19;20550;-69
2023/03/20 07:28:26;;;;;;;29.00;12.65;;;;;;;;;;12810514;19;21204;-68
2023/03/20 07:38:14;;;;;;;28.17;14.57;;;;;;;;;;12807259;19;20438;-70
2023/03/20 07:48:06;;;;;;;33.45;12.95;;;;;;;;;;12812658;19;20317;-69
2023/03/20 07:53:10;;;;;;;24.73;12.30;;;;;;;;;;12813941;19;20400;-70
2023/03/20 07:58:02;;;;;;;25.20;13.13;;;;;;;;;;12813868;19;20010;-69
2023/03/20 08:09:19;;;;;;;28.92;13.65;;;;;;;;;;12824151;19;20059;-68
2023/03/20 08:14:25;;;;;;;27.38;13.57;;;;;;;;;;12826923;19;20408;-68
2023/03/20 08:31:02;;;;;;;28.40;15.68;;;;;;;;;;12818382;19;20291;-70
2023/03/20 08:47:29;;;;;;;19.90;10.60;;;;;;;;;;12825749;19;20758;-68
2023/03/20 08:52:10;;;;;;;22.27;11.38;;;;;;;;;;12820030;19;20295;-69
2023/03/20 08:56:38;;;;;;;21.60;10.45;;;;;;;;;;12823844;19;20429;-69
2023/03/20 09:01:35;;;;;;;;;;;;;;;;;;12826941;19;20010;-68
2023/03/20 09:07:04;;;;;;;22.15;11.23;;;;;;;;;;12824071;19;20274;-70
2023/03/20 09:12:09;;;;;;;23.13;11.02;;;;;;;;;;12822343;19;20745;-70
2023/03/20 09:16:33;;;;;;;20.15;11.60;;;;;;;;;;12823681;19;20383;-70
2023/03/20 09:27:12;;;;;;;29.08;11.18;;;;;;;;;;12822476;19;20653;-69
2023/03/20 09:31:58;;;;;;;23.02;11.88;;;;;;;;;;12815980;19;20459;-68
2023/03/20 09:37:30;;;;;;;20.75;10.82;;;;;;;;;;12816548;19;20441;-69
2023/03/20 09:49:19;;;;;;;21.30;10.88;;;;;;;;;;12814293;19;20011;-68
2023/03/20 10:00:15;;;;;;;21.08;11.10;;;;;;;;;;12714304;19;2005837;-69
2023/03/20 10:04:59;;;;;;;22.38;11.95;;;;;;;;;;12819741;19;20029;-68
2023/03/20 10:16:14;;;;;;;22.70;10.02;;;;;;;;;;12812811;19;20421;-69
2023/03/20 10:21:12;;;;;;;16.90;9.50;;;;;;;;;;12819749;19;20011;-69
2023/03/20 10:26:25;;;;;;;20.40;10.23;;;;;;;;;;12819104;19;20014;-70
2023/03/20 10:31:38;;;;;;;29.75;14.20;;;;;;;;;;12817125;19;20014;-69
2023/03/20 10:37:04;;;;;;;25.05;11.40;;;;;;;;;;12819148;19;20314;-69
2023/03/20 10:48:38;;;;;;;25.00;13.43;;;;;;;;;;12713049;19;2005071;-69
2023/03/20 10:53:30;;;;;;;28.80;15.68;;;;;;;;;;12818921;19;20486;-70
2023/03/20 11:04:14;;;;;;;37.22;17.95;;;;;;;;;;12716547;19;2005031;-69
2023/03/20 11:09:09;;;;;;;50.22;22.70;;;;;;;;;;12821100;19;20073;-68
2023/03/20 11:24:41;;;;;;;40.25;18.08;;;;;;;;;;12809384;19;20699;-68
2023/03/20 11:29:34;;;;;;;32.33;16.52;;;;;;;;;;12815722;19;20436;-68
2023/03/20 11:40:51;;;;;;;27.08;15.10;;;;;;;;;;12822212;19;20335;-68
2023/03/20 11:45:22;;;;;;;26.00;14.30;;;;;;;;;;12820949;19;20304;-68
2023/03/20 11:50:04;;;;;;;21.15;12.07;;;;;;;;;;12829532;19;20037;-67
2023/03/20 12:01:13;;;;;;;31.40;13.25;;;;;;;;;;12727567;19;2004606;-68
2023/03/20 12:06:00;;;;;;;22.25;12.95;;;;;;;;;;12825446;19;20010;-69
2023/03/20 12:10:33;;;;;;;20.25;11.95;;;;;;;;;;12827164;19;20489;-68
2023/03/20 12:21:33;;;;;;;19.48;10.30;;;;;;;;;;12825810;19;20325;-68
2023/03/20 12:27:02;;;;;;;21.33;10.77;;;;;;;;;;12827519;19;20314;-68
2023/03/20 12:39:08;;;;;;;18.00;9.80;;;;;;;;;;12717828;19;2005030;-68
2023/03/20 12:56:17;;;;;;;19.63;10.48;;;;;;;;;;12824615;19;20489;-69
2023/03/20 13:00:59;;;;;;;17.38;9.70;;;;;;;;;;12825650;19;20397;-69
2023/03/20 13:06:27;;;;;;;17.17;10.07;;;;;;;;;;12825732;19;20469;-69
2023/03/20 13:12:11;;;;;;;17.10;10.20;;;;;;;;;;12815718;19;20655;-68
2023/03/20 13:17:13;;;;;;;14.80;9.18;;;;;;;;;;12821539;19;20441;-68
2023/03/20 13:22:34;;;;;;;14.07;9.35;;;;;;;;;;12824165;19;20757;-68
2023/03/20 13:28:08;;;;;;;13.38;8.57;;;;;;;;;;12822706;19;20311;-68
2023/03/20 13:33:34;;;;;;;15.50;8.48;;;;;;;;;;12821193;19;20375;-69
2023/03/20 13:44:31;;;;;;;15.47;9.20;;;;;;;;;;12821870;19;20038;-68
2023/03/20 13:49:26;;;;;;;11.68;7.65;;;;;;;;;;12820765;19;20476;-68
2023/03/20 13:54:59;;;;;;;13.70;7.40;;;;;;;;;;12821896;19;20070;-69
2023/03/20 14:00:37;;;;;;;14.88;6.78;;;;;;;;;;12711453;19;2004876;-68
2023/03/20 14:06:17;;;;;;;11.63;7.43;;;;;;;;;;12814360;19;20389;-68
2023/03/20 14:11:31;;;;;;;9.75;5.38;;;;;;;;;;12812966;19;20486;-70
2023/03/20 14:16:32;;;;;;;8.60;4.97;;;;;;;;;;12815943;19;20377;-69
2023/03/20 14:21:30;;;;;;;9.73;5.65;;;;;;;;;;12814357;19;20028;-70
2023/03/20 14:26:08;;;;;;;10.05;5.45;;;;;;;;;;12813295;19;20496;-69
2023/03/20 14:31:24;;;;;;;10.75;5.60;;;;;;;;;;12812112;19;20329;-68
2023/03/20 14:36:38;;;;;;;8.50;4.68;;;;;;;;;;12812630;19;20521;-68
2023/03/20 14:42:33;;;;;;;12.80;6.20;;;;;;;;;;12810797;19;20322;-68
2023/03/20 14:48:21;;;;;;;8.52;5.60;;;;;;;;;;12810868;19;20347;-68
2023/03/20 14:53:19;;;;;;;9.30;5.03;;;;;;;;;;12816334;19;20364;-69
2023/03/20 15:03:58;;;;;;;19.65;10.00;;;;;;;;;;12816410;19;20374;-68
2023/03/20 15:09:13;;;;;;;11.73;7.28;;;;;;;;;;12813238;19;20422;-69
2023/03/20 15:14:15;;;;;;;13.98;7.65;;;;;;;;;;12821431;19;20319;-69
2023/03/20 15:19:00;;;;;;;13.07;7.05;;;;;;;;;;12820745;19;20109;-70
2023/03/20 15:23:36;;;;;;;15.38;7.63;;;;;;;;;;12823211;19;20018;-69
2023/03/20 15:29:36;;;;;;;15.15;7.35;;;;;;;;;;12823418;19;20226;-68
2023/03/20 15:35:02;;;;;;;7.95;5.50;;;;;;;;;;12721070;19;2004815;-69
2023/03/20 15:40:08;;;;;;;12.25;6.90;;;;;;;;;;12821654;19;20385;-68
2023/03/20 15:45:31;;;;;;;12.68;7.22;;;;;;;;;;12822948;19;20501;-68
2023/03/20 15:51:03;;;;;;;7.43;5.20;;;;;;;;;;12819351;19;20014;-68
2023/03/20 15:56:25;;;;;;;8.75;4.75;;;;;;;;;;12819679;19;20411;-68
2023/03/20 16:00:50;;;;;;;8.07;4.60;;;;;;;;;;12819377;19;20483;-69
2023/03/20 16:05:20;;;;;;;11.55;5.53;;;;;;;;;;12815967;19;20497;-68
2023/03/20 16:10:01;;;;;;;14.10;5.50;;;;;;;;;;12816609;19;20359;-68
2023/03/20 16:15:15;;;;;;;10.07;6.47;;;;;;;;;;12817843;19;20374;-69
2023/03/20 16:20:00;;;;;;;36.65;20.15;;;;;;;;;;12814761;19;20302;-69
2023/03/20 16:25:09;;;;;;;56.20;28.08;;;;;;;;;;12819561;19;20322;-69
2023/03/20 16:41:56;;;;;;;35.92;17.30;;;;;;;;;;12826247;19;20425;-68
2023/03/20 16:46:27;;;;;;;27.58;15.60;;;;;;;;;;12824657;19;20426;-68
2023/03/20 17:02:27;;;;;;;29.10;15.55;;;;;;;;;;12819819;19;20314;-67
2023/03/20 17:07:29;;;;;;;31.77;17.58;;;;;;;;;;12825425;19;20337;-70
2023/03/20 17:12:37;;;;;;;26.83;14.82;;;;;;;;;;12815408;19;20319;-69
2023/03/20 17:17:33;;;;;;;20.80;11.38;;;;;;;;;;12815782;19;20462;-69
2023/03/20 17:22:02;;;;;;;20.63;12.30;;;;;;;;;;12818058;19;20021;-69
2023/03/20 17:32:58;;;;;;;16.48;9.35;;;;;;;;;;12812573;19;20118;-69
2023/03/20 17:37:29;;;;;;;23.67;11.40;;;;;;;;;;12819801;19;20326;-68
2023/03/20 17:43:00;;;;;;;16.98;8.48;;;;;;;;;;12824537;19;20351;-69
2023/03/20 17:48:14;;;;;;;16.80;9.35;;;;;;;;;;12818107;19;20318;-69
2023/03/20 17:52:58;;;;;;;18.73;10.45;;;;;;;;;;12822133;19;20333;-68
2023/03/20 17:58:34;;;;;;;18.45;8.60;;;;;;;;;;12822353;19;20382;-68
2023/03/20 18:04:07;;;;;;;20.52;9.57;;;;;;;;;;12813684;19;20800;-69
2023/03/20 18:09:07;;;;;;;38.53;14.88;;;;;;;;;;12821094;19;20434;-68
2023/03/20 18:20:33;;;;;;;35.08;13.65;;;;;;;;;;12818399;19;20453;-68
2023/03/20 18:25:16;;;;;;;27.73;13.27;;;;;;;;;;12820317;19;20426;-68
2023/03/20 18:35:59;;;;;;;36.28;16.58;;;;;;;;;;12713739;19;2005170;-68
2023/03/20 18:40:37;;;;;;;34.63;15.45;;;;;;;;;;12818531;19;20307;-69
2023/03/20 18:57:03;;;;;;;28.75;13.15;;;;;;;;;;12817329;19;20018;-67
2023/03/20 19:01:48;;;;;;;22.25;10.88;;;;;;;;;;12811794;19;21046;-68
2023/03/20 19:06:57;;;;;;;22.38;11.98;;;;;;;;;;12815139;19;20469;-69
2023/03/20 19:11:20;;;;;;;31.80;13.50;;;;;;;;;;12811432;19;20034;-68
2023/03/20 19:16:03;;;;;;;34.42;13.77;;;;;;;;;;12811679;19;20533;-67
2023/03/20 19:21:06;;;;;;;39.58;14.73;;;;;;;;;;12802901;19;20503;-68
2023/03/20 19:25:58;;;;;;;40.30;14.43;;;;;;;;;;12811110;19;20570;-68
2023/03/20 19:30:57;;;;;;;39.15;14.45;;;;;;;;;;12808853;19;20019;-68
2023/03/20 19:36:14;;;;;;;27.88;12.50;;;;;;;;;;12809286;19;20375;-68
2023/03/20 19:41:31;;;;;;;37.72;15.52;;;;;;;;;;12808477;19;20425;-69
2023/03/20 19:46:00;;;;;;;85.88;32.25;;;;;;;;;;12809098;19;20495;-69
2023/03/20 19:57:00;;;;;;;119.82;42.35;;;;;;;;;;12713193;19;2006211;-69
2023/03/20 20:02:00;;;;;;;125.25;39.55;;;;;;;;;;12819923;19;20294;-68
2023/03/20 20:06:56;;;;;;;121.45;43.22;;;;;;;;;;12819932;19;20347;-68
2023/03/20 20:17:25;;;;;;;172.63;54.72;;;;;;;;;;12816659;19;20292;-70
2023/03/20 20:22:23;;;;;;;129.80;45.75;;;;;;;;;;12818381;19;20481;-69
2023/03/20 20:33:34;;;;;;;139.35;54.17;;;;;;;;;;12719269;19;2005278;-68
2023/03/20 20:38:28;;;;;;;151.95;58.92;;;;;;;;;;12817917;19;20415;-68
2023/03/20 20:50:02;;;;;;;122.63;54.45;;;;;;;;;;12823089;19;20014;-67
2023/03/20 20:54:41;;;;;;;95.18;43.63;;;;;;;;;;12822090;19;20319;-68
2023/03/20 21:05:14;;;;;;;84.57;41.28;;;;;;;;;;12824709;19;20016;-68
2023/03/20 21:10:17;;;;;;;81.90;40.03;;;;;;;;;;12819588;19;20484;-67
2023/03/20 21:26:18;;;;;;;84.15;42.20;;;;;;;;;;12815699;19;20387;-69
2023/03/20 21:37:21;;;;;;;89.88;41.55;;;;;;;;;;12715113;19;2004692;-69
2023/03/20 21:42:57;;;;;;;66.53;33.53;;;;;;;;;;12714354;19;2004905;-69
2023/03/20 21:48:33;;;;;;;43.33;23.95;;;;;;;;;;12816793;19;20448;-69
2023/03/20 21:54:16;;;;;;;39.40;20.63;;;;;;;;;;12814448;19;20322;-68
2023/03/20 21:59:09;;;;;;;26.10;15.45;;;;;;;;;;12813118;19;20310;-68
2023/03/20 22:03:57;;;;;;;25.33;14.45;;;;;;;;;;12815152;19;20309;-67
2023/03/20 22:14:57;;;;;;;17.20;11.90;;;;;;;;;;12812747;19;20345;-67
2023/03/20 22:20:20;;;;;;;17.75;10.50;;;;;;;;;;12810859;19;20541;-67
2023/03/20 22:25:01;;;;;;;26.70;14.13;;;;;;;;;;12819523;19;20498;-67
2023/03/20 22:29:58;;;;;;;31.20;15.57;;;;;;;;;;12817114;19;20029;-67
2023/03/20 22:35:08;;;;;;;25.38;13.77;;;;;;;;;;12813493;19;20303;-67
2023/03/20 22:40:39;;;;;;;22.98;14.13;;;;;;;;;;12814827;19;20010;-67
2023/03/20 22:51:38;;;;;;;29.05;14.07;;;;;;;;;;12812787;19;20072;-67
2023/03/20 23:02:10;;;;;;;26.77;14.77;;;;;;;;;;12811450;19;20437;-67
2023/03/20 23:06:35;;;;;;;24.05;14.93;;;;;;;;;;12822502;19;20460;-66
2023/03/20 23:12:30;;;;;;;25.05;15.27;;;;;;;;;;12820971;19;20017;-67
2023/03/20 23:18:08;;;;;;;29.38;15.25;;;;;;;;;;12815868;19;20302;-66
2023/03/20 23:22:34;;;;;;;24.88;16.02;;;;;;;;;;12815948;19;20438;-67
2023/03/20 23:27:18;;;;;;;29.92;17.10;;;;;;;;;;12815184;19;20433;-67
2023/03/20 23:32:11;;;;;;;31.23;17.45;;;;;;;;;;12825842;19;20489;-67
2023/03/20 23:37:04;;;;;;;24.85;15.07;;;;;;;;;;12827486;19;20434;-68
2023/03/20 23:41:57;;;;;;;26.83;15.70;;;;;;;;;;12830702;19;20451;-67
2023/03/20 23:53:39;;;;;;;26.85;15.30;;;;;;;;;;12830113;19;20346;-68
2023/03/20 23:58:36;;;;;;;22.45;14.18;;;;;;;;;;12825888;19;20421;-67
